Pinckneyville, Illinois
Current Conditions -  °F | °C
As of 11:55 PM on Wednesday 22 Oct 2014 (Local Time) from KSAR Reporting Station
Haze Haze  
Wind Chill: 41°   Ceiling: 500
Heat Index: 41°   Visibility: 0.75mi
Dew Point: 39°   Wind: 0mph
Humidity: 93%   Direction: NA
Pressure: 30.25"   Gusts: NA
Location:  38.08°N, 89.38°W
Report Text: KSAR 230455Z AUTO 00000KT 3/4SM BR VV005 05/04 A3025 RMK AO2 T00500040
Loading
Personal Weather Stations






























Interactive Weather Map
Tropical Storm Tracking
New forecast layout! Learn more

10-Day Weather Forecast

Advertisements
Track Severe Weather on mobile